Time;durP1;ratioP1;P1;durP2;ratioP2;P2;SDS_P1;SDS_P2;PMS_P1;PMS_P2;Temp;Humidity;BMP_temperature;BMP_pressure;BME280_temperature;BME280_humidity;BME280_pressure;Samples;Min_cycle;Max_cycle;Signal;HPM_P1;HPM_P2
2022/01/12 00:01:40;;;;;;;;;77.40;63.60;19.60;99.90;;;;;;5037754;28;8763;-70
2022/01/12 00:04:07;;;;;;;;;84.60;73.20;19.80;99.90;;;;;;5035905;28;9502;-71
2022/01/12 00:06:34;;;;;;;;;79.40;69.60;19.70;99.90;;;;;;5037289;28;9414;-71
2022/01/12 00:09:05;;;;;;;;;81.40;68.40;19.60;99.90;;;;;;5037655;28;8732;-71
2022/01/12 00:11:36;;;;;;;;;80.60;72.00;19.40;99.90;;;;;;5036180;28;8741;-71
2022/01/12 00:14:03;;;;;;;;;82.20;73.00;19.40;99.90;;;;;;5036115;28;8745;-71
2022/01/12 00:16:30;;;;;;;;;83.20;73.80;19.40;99.90;;;;;;5036609;28;8760;-70
2022/01/12 00:18:57;;;;;;;;;89.60;76.20;19.50;99.90;;;;;;5043424;28;8766;-71
2022/01/12 00:21:23;;;;;;;;;87.00;76.00;19.50;99.90;;;;;;5056664;28;8950;-70
2022/01/12 00:23:51;;;;;;;;;85.20;77.80;19.70;99.90;;;;;;5055811;28;8990;-71
2022/01/12 00:26:38;;;;;;;;;88.60;78.20;19.70;99.90;;;;;;5055610;28;8760;-68
2022/01/12 00:34:34;;;;;;;;;84.00;74.40;19.80;99.90;;;;;;5056138;28;8750;-70
2022/01/12 00:37:01;;;;;;;;;92.00;80.00;19.80;99.90;;;;;;5056075;28;8742;-71
2022/01/12 00:39:28;;;;;;;;;83.60;75.40;19.80;99.90;;;;;;5056240;28;8778;-71
2022/01/12 00:41:54;;;;;;;;;96.80;85.60;19.90;99.90;;;;;;5056825;28;8745;-71
2022/01/12 00:44:23;;;;;;;;;101.20;84.40;19.90;99.90;;;;;;5054869;28;8754;-70
2022/01/12 00:46:51;;;;;;;;;97.00;83.60;19.90;99.90;;;;;;5056680;28;8749;-71
2022/01/12 00:49:18;;;;;;;;;88.60;81.00;20.00;99.90;;;;;;5056721;28;8754;-70
2022/01/12 00:51:47;;;;;;;;;98.40;83.40;20.00;99.90;;;;;;5056533;28;8754;-71
2022/01/12 00:54:14;;;;;;;;;77.80;63.00;20.10;99.90;;;;;;5056104;28;8757;-71
2022/01/12 00:56:40;;;;;;;;;88.00;77.80;20.00;99.90;;;;;;5056310;28;8811;-70
2022/01/12 00:59:07;;;;;;;;;89.20;79.60;19.90;99.90;;;;;;5056193;28;8884;-70
2022/01/12 01:01:34;;;;;;;;;91.40;82.00;20.00;99.90;;;;;;5056350;28;8730;-70
2022/01/12 01:04:02;;;;;;;;;94.60;79.40;20.10;99.90;;;;;;5056394;28;9430;-70
2022/01/12 01:06:30;;;;;;;;;103.60;93.40;20.20;99.90;;;;;;5056228;28;8847;-70
2022/01/12 01:08:57;;;;;;;;;97.80;89.20;20.30;99.90;;;;;;5060245;28;8760;-70
2022/01/12 01:11:24;;;;;;;;;86.80;78.60;20.40;99.90;;;;;;5060078;28;8811;-69
2022/01/12 01:14:03;;;;;;;;;81.00;73.00;20.50;99.90;;;;;;5060416;28;8896;-70
2022/01/12 01:27:27;;;;;;;;;75.80;64.40;21.00;99.90;;;;;;5060004;28;8750;-70
2022/01/12 01:29:55;;;;;;;;;79.20;69.00;21.10;99.90;;;;;;5058672;28;8792;-70
2022/01/12 01:32:23;;;;;;;;;76.40;63.60;21.20;99.90;;;;;;5058076;28;8797;-69
2022/01/12 01:34:50;;;;;;;;;79.60;68.80;21.30;99.90;;;;;;5059448;28;8872;-70
2022/01/12 01:37:17;;;;;;;;;78.20;69.60;21.40;99.90;;;;;;5060602;28;8733;-69
2022/01/12 01:39:46;;;;;;;;;69.60;56.20;21.40;99.90;;;;;;5059597;28;8753;-70
2022/01/12 01:42:18;;;;;;;;;71.20;56.60;21.50;99.90;;;;;;5058727;28;8916;-70
2022/01/12 01:55:34;;;;;;;;;72.80;56.60;22.10;99.90;;;;;;5039706;28;8878;-70
2022/01/12 01:58:01;;;;;;;;;71.20;57.20;22.10;99.90;;;;;;5039694;28;8802;-70
2022/01/12 02:00:28;;;;;;;;;71.40;54.80;22.00;99.90;;;;;;5039099;28;8776;-70
2022/01/12 02:02:57;;;;;;;;;74.00;56.40;22.10;99.90;;;;;;5039244;28;8893;-69
2022/01/12 02:05:24;;;;;;;;;72.40;53.40;22.20;99.90;;;;;;5056744;28;8785;-69
2022/01/12 02:07:51;;;;;;;;;58.40;49.00;22.20;99.90;;;;;;5058217;28;8761;-69
2022/01/12 02:10:18;;;;;;;;;64.60;49.80;22.20;99.90;;;;;;5059710;28;8726;-69
2022/01/12 02:12:45;;;;;;;;;72.20;53.80;22.20;99.90;;;;;;5059221;28;8854;-69
2022/01/12 02:15:17;;;;;;;;;65.80;51.80;22.20;99.90;;;;;;5059617;28;8765;-70
2022/01/12 02:18:00;;;;;;;;;67.40;54.20;22.10;99.90;;;;;;5059028;28;8805;-70
2022/01/12 02:35:12;;;;;;;;;63.20;49.80;22.20;99.90;;;;;;5057938;28;8786;-71
2022/01/12 02:37:16;;;;;;;;;74.60;56.60;22.60;99.90;;;;;;5058391;28;8750;-70
2022/01/12 02:42:10;;;;;;;;;70.20;55.20;22.80;99.90;;;;;;5058678;28;8789;-69
2022/01/12 02:55:42;;;;;;;;;64.40;50.80;23.30;99.90;;;;;;5058537;28;8730;-70
2022/01/12 02:58:08;;;;;;;;;73.60;56.00;23.50;99.90;;;;;;5057272;28;8785;-70
2022/01/12 03:01:37;;;;;;;;;62.50;49.50;23.60;99.90;;;;;;5058299;28;8761;-70
2022/01/12 03:03:24;;;;;;;;;61.75;45.75;23.80;99.90;;;;;;5047017;28;8782;-70
2022/01/12 03:06:03;;;;;;;;;65.25;52.00;23.70;99.90;;;;;;5056891;28;8765;-71
2022/01/12 03:08:36;;;;;;;;;66.25;51.25;23.70;99.90;;;;;;5041655;28;8879;-70
2022/01/12 03:11:08;;;;;;;;;59.75;48.25;23.70;99.90;;;;;;5057004;28;8776;-70
2022/01/12 03:13:35;;;;;;;;;63.75;48.75;23.90;99.90;;;;;;5056624;28;8749;-69
2022/01/12 03:16:08;;;;;;;;;63.25;50.00;24.10;99.90;;;;;;5058733;28;8760;-70
2022/01/12 03:18:35;;;;;;;;;60.25;46.25;24.10;99.90;;;;;;5056488;28;8862;-70
2022/01/12 03:21:02;;;;;;;;;55.50;43.50;24.30;99.90;;;;;;5058068;28;8792;-71
2022/01/12 03:23:32;;;;;;;;;56.50;45.50;24.40;99.90;;;;;;5057462;28;8784;-70
2022/01/12 03:25:59;;;;;;;;;58.50;46.25;24.40;99.90;;;;;;5056547;28;8773;-71
2022/01/12 03:28:26;;;;;;;;;53.25;43.00;24.40;99.90;;;;;;5057334;28;8773;-70
2022/01/12 03:30:56;;;;;;;;;62.25;45.25;24.40;99.90;;;;;;5039126;28;8754;-70
2022/01/12 03:36:23;;;;;;;;;59.00;45.75;24.40;99.90;;;;;;5057900;28;8900;-71
2022/01/12 03:38:45;;;;;;;;;56.25;45.25;24.60;99.90;;;;;;5057798;28;8801;-70
2022/01/12 03:41:12;;;;;;;;;63.60;51.60;24.80;99.90;;;;;;5057724;28;8754;-70
2022/01/12 03:43:39;;;;;;;;;53.75;43.50;24.90;99.90;;;;;;5073044;28;8789;-70
2022/01/12 03:46:05;;;;;;;;;49.50;40.75;25.10;99.90;;;;;;5056672;28;8761;-70
2022/01/12 03:48:32;;;;;;;;;51.75;42.75;25.10;99.30;;;;;;5057358;28;8796;-70
2022/01/12 03:50:59;;;;;;;;;56.25;44.00;25.10;99.70;;;;;;5056203;28;8741;-70
2022/01/12 03:53:26;;;;;;;;;49.00;41.25;25.10;99.80;;;;;;5057074;28;8899;-70
2022/01/12 03:55:52;;;;;;;;;49.50;40.75;25.20;99.80;;;;;;5055881;28;8757;-69
2022/01/12 03:58:19;;;;;;;;;48.75;40.75;25.30;99.90;;;;;;5057387;28;8778;-69
2022/01/12 04:00:46;;;;;;;;;52.75;41.50;25.50;99.80;;;;;;5056873;28;8754;-70
2022/01/12 04:03:14;;;;;;;;;49.75;39.25;25.60;99.50;;;;;;5056010;28;9874;-69
2022/01/12 04:08:28;;;;;;;;;53.00;41.75;25.60;99.60;;;;;;5005447;28;8792;-70
2022/01/12 04:10:57;;;;;;;;;48.00;39.25;25.80;98.70;;;;;;5036905;28;8794;-70
2022/01/12 04:13:26;;;;;;;;;47.25;37.75;25.80;97.70;;;;;;5037119;28;8858;-70
2022/01/12 04:16:12;;;;;;;;;51.50;39.25;25.80;97.90;;;;;;5052015;28;8748;-70
2022/01/12 04:18:38;;;;;;;;;35.67;31.67;25.80;98.30;;;;;;5039870;28;8813;-71
2022/01/12 04:21:09;;;;;;;;;49.00;38.50;26.00;97.20;;;;;;5056779;28;8782;-70
2022/01/12 04:23:37;;;;;;;;;46.75;38.00;26.10;96.50;;;;;;5038460;28;8762;-70
2022/01/12 04:26:10;;;;;;;;;46.75;37.75;26.10;97.00;;;;;;5056431;28;8769;-70
2022/01/12 04:28:39;;;;;;;;;46.25;39.25;26.00;96.80;;;;;;5054874;28;9430;-69
2022/01/12 04:31:06;;;;;;;;;48.00;38.50;26.00;96.50;;;;;;5056997;28;8757;-69
2022/01/12 04:33:34;;;;;;;;;52.50;41.00;26.20;96.10;;;;;;5055007;28;8785;-70
2022/01/12 04:36:01;;;;;;;;;48.25;40.50;26.40;96.10;;;;;;5056274;28;8746;-70
2022/01/12 04:38:30;;;;;;;;;51.50;39.75;26.60;96.60;;;;;;5056035;28;9627;-70
2022/01/12 04:40:57;;;;;;;;;48.00;39.00;26.70;96.00;;;;;;5054907;28;8838;-70
2022/01/12 04:43:24;;;;;;;;;48.75;40.00;26.70;95.80;;;;;;5055498;28;8764;-69
2022/01/12 04:50:50;;;;;;;;;47.75;40.00;26.70;95.90;;;;;;5054816;28;8769;-70
2022/01/12 04:53:18;;;;;;;;;55.75;42.00;26.80;96.20;;;;;;5055774;28;9446;-69
2022/01/12 04:55:48;;;;;;;;;51.00;40.75;27.00;95.30;;;;;;5054746;28;8832;-71
2022/01/12 04:58:15;;;;;;;;;53.00;42.25;27.30;94.90;;;;;;5056620;28;8805;-70
2022/01/12 05:00:42;;;;;;;;;50.25;40.75;27.30;95.20;;;;;;5056412;28;8756;-70
2022/01/12 05:13:53;;;;;;;;;54.25;41.75;27.60;94.50;;;;;;5036532;28;9428;-70
2022/01/12 05:16:21;;;;;;;;;39.75;34.25;27.70;93.90;;;;;;5051567;28;8756;-69
2022/01/12 05:18:49;;;;;;;;;49.25;39.25;27.70;93.40;;;;;;5040838;28;8798;-70
2022/01/12 05:21:17;;;;;;;;;46.75;39.50;27.80;93.30;;;;;;5056796;28;8786;-71
2022/01/12 05:23:44;;;;;;;;;47.00;37.75;27.90;93.10;;;;;;5056196;28;8851;-71
2022/01/12 05:26:11;;;;;;;;;48.00;38.75;27.90;93.40;;;;;;5056256;28;8798;-70
2022/01/12 05:28:38;;;;;;;;;52.75;41.00;28.00;93.30;;;;;;5055877;28;8757;-70
2022/01/12 05:31:09;;;;;;;;;47.00;39.50;28.10;93.00;;;;;;5038888;28;8738;-70
2022/01/12 05:33:37;;;;;;;;;47.50;37.00;28.00;92.70;;;;;;5055845;28;8798;-69
2022/01/12 05:36:06;;;;;;;;;52.25;39.75;28.10;92.80;;;;;;5055447;28;8850;-70
2022/01/12 05:38:33;;;;;;;;;45.00;37.00;28.30;92.00;;;;;;5055474;28;8801;-69
2022/01/12 05:41:01;;;;;;;;;50.00;41.00;28.40;91.80;;;;;;5056047;28;8815;-70
2022/01/12 05:43:30;;;;;;;;;43.00;35.00;28.50;92.20;;;;;;5055565;28;8773;-69
2022/01/12 05:46:00;;;;;;;;;43.00;36.00;28.40;91.50;;;;;;5056336;28;8769;-69
2022/01/12 05:51:14;;;;;;;;;45.25;37.75;28.50;91.10;;;;;;5056035;28;8761;-69
2022/01/12 05:53:41;;;;;;;;;43.25;35.00;28.60;91.10;;;;;;5056142;28;8780;-69
2022/01/12 05:56:08;;;;;;;;;41.50;36.00;28.70;91.20;;;;;;5058311;28;8765;-69
2022/01/12 05:58:34;;;;;;;;;45.00;36.75;28.80;91.10;;;;;;5058977;28;8801;-70
2022/01/12 06:01:01;;;;;;;;;43.75;35.50;28.90;91.20;;;;;;5050959;28;8789;-69
2022/01/12 06:03:28;;;;;;;;;46.25;35.75;29.00;91.00;;;;;;5058600;28;8847;-69
2022/01/12 06:05:54;;;;;;;;;43.00;37.50;29.20;90.40;;;;;;5059231;28;9445;-69
2022/01/12 06:08:21;;;;;;;;;46.75;37.50;29.30;90.40;;;;;;5057923;28;8750;-69
2022/01/12 06:10:48;;;;;;;;;47.00;37.75;29.30;90.30;;;;;;5059562;28;8776;-69
2022/01/12 06:13:14;;;;;;;;;48.50;40.00;29.20;90.10;;;;;;5058717;28;9414;-70
2022/01/12 06:15:41;;;;;;;;;44.75;36.00;29.20;90.20;;;;;;5059088;28;8730;-69
2022/01/12 06:18:11;;;;;;;;;45.50;37.75;29.30;89.60;;;;;;5058949;28;8854;-70
2022/01/12 06:20:38;;;;;;;;;47.50;35.50;29.30;90.40;;;;;;5058492;28;8796;-70
2022/01/12 06:23:04;;;;;;;;;41.50;36.50;29.30;88.70;;;;;;5058788;28;8761;-70
2022/01/12 06:25:31;;;;;;;;;41.50;34.50;29.30;89.70;;;;;;5058615;28;8781;-69
2022/01/12 06:28:20;;;;;;;;;42.75;35.75;29.30;88.80;;;;;;5059409;28;8745;-72
2022/01/12 06:33:30;;;;;;;;;39.50;34.00;29.30;89.60;;;;;;5057165;28;8852;-70
2022/01/12 06:35:56;;;;;;;;;42.00;36.75;29.60;88.30;;;;;;5058843;28;8762;-70
2022/01/12 06:38:26;;;;;;;;;46.75;36.75;29.30;88.60;;;;;;5073471;28;8781;-69
2022/01/12 06:40:53;;;;;;;;;48.75;39.00;29.10;89.30;;;;;;5041326;28;9316;-69
2022/01/12 06:43:19;;;;;;;;;46.25;37.25;29.20;90.10;;;;;;5024813;28;8719;-69
2022/01/12 06:45:46;;;;;;;;;42.00;34.50;29.40;87.60;;;;;;5040737;28;9548;-69
2022/01/12 06:48:13;;;;;;;;;37.50;30.25;29.60;87.30;;;;;;5056938;28;9430;-70
2022/01/12 06:50:39;;;;;;;;;44.00;37.25;29.60;86.90;;;;;;5058165;28;8781;-70
2022/01/12 06:53:06;;;;;;;;;48.00;38.75;29.70;84.90;;;;;;5057475;28;8777;-70
2022/01/12 06:55:33;;;;;;;;;42.25;35.50;29.80;85.70;;;;;;5056889;28;8738;-70
2022/01/12 06:58:00;;;;;;;;;48.00;38.00;29.90;86.40;;;;;;5058660;28;8788;-70
2022/01/12 07:00:26;;;;;;;;;41.75;34.00;29.90;85.20;;;;;;5058055;28;8880;-70
2022/01/12 07:02:54;;;;;;;;;44.75;36.75;29.90;85.00;;;;;;5058272;28;8970;-70
2022/01/12 07:05:20;;;;;;;;;44.75;36.00;29.90;85.30;;;;;;5057408;28;8817;-68
2022/01/12 07:07:47;;;;;;;;;47.75;36.75;30.00;85.40;;;;;;5057981;28;8772;-69
2022/01/12 07:10:14;;;;;;;;;46.75;37.75;30.00;85.30;;;;;;5073613;28;8734;-71
2022/01/12 07:12:41;;;;;;;;;46.00;36.75;30.10;84.10;;;;;;5057992;28;8733;-69
2022/01/12 07:15:08;;;;;;;;;48.75;38.75;30.00;83.60;;;;;;5056724;28;8754;-70
2022/01/12 07:17:35;;;;;;;;;40.75;35.50;30.00;82.50;;;;;;5040066;28;8757;-69
2022/01/12 07:20:03;;;;;;;;;41.75;36.00;30.10;82.40;;;;;;5057915;28;8870;-69
2022/01/12 07:22:32;;;;;;;;;46.25;33.75;30.20;82.40;;;;;;5057602;28;8734;-70
2022/01/12 07:24:59;;;;;;;;;46.25;38.50;30.00;81.50;;;;;;5057452;28;8795;-69
2022/01/12 07:27:26;;;;;;;;;39.00;34.25;30.00;82.70;;;;;;5057912;28;9880;-70
2022/01/12 07:29:52;;;;;;;;;47.75;39.00;30.10;82.80;;;;;;5056597;28;8754;-71
2022/01/12 07:32:19;;;;;;;;;43.00;36.75;30.10;82.40;;;;;;5057713;28;8725;-69
2022/01/12 07:34:50;;;;;;;;;40.50;33.25;30.10;81.90;;;;;;5057798;28;8816;-70
2022/01/12 07:37:17;;;;;;;;;45.50;36.25;30.20;82.60;;;;;;5058238;28;9413;-68
2022/01/12 07:39:44;;;;;;;;;44.50;37.75;30.30;81.10;;;;;;5057576;28;8770;-70
2022/01/12 07:42:11;;;;;;;;;42.25;36.00;30.40;79.50;;;;;;5057298;28;8754;-70
2022/01/12 07:44:39;;;;;;;;;45.75;36.75;30.60;79.10;;;;;;5057279;28;9265;-69
2022/01/12 07:47:06;;;;;;;;;43.75;37.25;30.60;77.70;;;;;;5057708;28;8896;-70
2022/01/12 07:49:34;;;;;;;;;48.50;39.75;30.60;77.70;;;;;;5057193;28;8742;-69
2022/01/12 07:52:06;;;;;;;;;44.00;36.25;30.60;78.30;;;;;;5057749;28;8770;-70
2022/01/12 07:54:36;;;;;;;;;45.75;34.50;30.60;77.80;;;;;;5056860;28;8794;-70
2022/01/12 07:57:03;;;;;;;;;46.50;36.25;30.70;79.40;;;;;;5057241;28;9176;-69
2022/01/12 07:59:29;;;;;;;;;46.50;37.00;30.70;79.80;;;;;;5056802;28;8792;-70
2022/01/12 08:01:57;;;;;;;;;44.50;37.50;30.80;79.30;;;;;;5055777;28;8738;-70
2022/01/12 08:04:23;;;;;;;;;44.25;35.25;30.70;78.90;;;;;;5056741;28;8790;-70
2022/01/12 08:06:50;;;;;;;;;46.75;39.00;30.70;78.80;;;;;;5055965;28;8855;-70
2022/01/12 08:09:17;;;;;;;;;43.25;36.50;30.60;78.70;;;;;;5056885;28;9036;-69
2022/01/12 08:11:43;;;;;;;;;38.75;32.25;30.50;79.80;;;;;;5057284;28;8792;-70
2022/01/12 08:14:10;;;;;;;;;43.00;36.50;30.40;78.80;;;;;;5057246;28;8808;-70
2022/01/12 08:16:37;;;;;;;;;16.50;13.00;30.40;79.60;;;;;;5071410;28;8773;-70
2022/01/12 08:19:06;;;;;;;;;46.00;38.50;30.40;79.20;;;;;;5057107;28;8790;-70
2022/01/12 08:21:33;;;;;;;;;40.50;35.75;30.40;80.30;;;;;;5056382;28;9437;-69
2022/01/12 08:23:59;;;;;;;;;45.75;39.75;30.40;78.50;;;;;;5056657;28;8774;-71
2022/01/12 08:26:26;;;;;;;;;44.50;37.75;30.40;81.30;;;;;;5056569;28;8777;-70
2022/01/12 08:28:53;;;;;;;;;46.00;36.00;30.20;81.60;;;;;;5055778;28;9937;-70
2022/01/12 08:31:23;;;;;;;;;45.25;38.50;30.10;81.60;;;;;;5055892;28;8872;-69
2022/01/12 08:33:49;;;;;;;;;47.75;40.50;30.00;82.60;;;;;;5056655;28;10406;-70
2022/01/12 08:36:16;;;;;;;;;42.25;36.25;29.90;82.90;;;;;;5055798;28;8757;-70
2022/01/12 08:38:43;;;;;;;;;41.50;36.25;29.90;83.10;;;;;;5056780;28;8790;-71
2022/01/12 08:41:10;;;;;;;;;47.00;37.75;29.90;82.00;;;;;;5056708;28;8770;-70
2022/01/12 08:43:36;;;;;;;;;31.75;27.50;29.90;84.00;;;;;;5056337;28;8772;-70
2022/01/12 08:46:03;;;;;;;;;50.00;40.50;29.80;83.40;;;;;;5057041;28;8746;-70
2022/01/12 08:48:30;;;;;;;;;45.50;37.00;29.70;82.60;;;;;;5056157;28;8753;-69
2022/01/12 08:50:57;;;;;;;;;49.50;41.50;29.80;83.00;;;;;;5056367;28;8776;-70
2022/01/12 08:53:23;;;;;;;;;48.00;39.50;29.80;83.00;;;;;;5056103;28;8766;-69
2022/01/12 08:55:50;;;;;;;;;52.50;43.50;29.90;82.00;;;;;;5056532;28;8827;-69
2022/01/12 08:58:17;;;;;;;;;49.50;40.25;29.80;83.90;;;;;;5056881;28;8766;-68
2022/01/12 09:00:44;;;;;;;;;51.50;40.00;29.50;85.30;;;;;;5056476;28;8788;-69
2022/01/12 09:03:13;;;;;;;;;50.00;40.50;29.40;84.90;;;;;;5056522;28;8876;-69
2022/01/12 09:05:40;;;;;;;;;47.50;38.75;29.50;85.80;;;;;;5055760;28;8773;-69
2022/01/12 09:08:07;;;;;;;;;50.00;39.75;29.40;87.40;;;;;;5056409;28;8798;-69
2022/01/12 09:10:34;;;;;;;;;50.50;41.00;29.30;87.80;;;;;;5061367;28;8768;-69
2022/01/12 09:13:03;;;;;;;;;51.25;37.25;29.30;86.30;;;;;;5056833;28;9367;-70
2022/01/12 09:15:30;;;;;;;;;45.00;35.50;29.40;86.70;;;;;;5054569;28;8753;-69
2022/01/12 09:17:57;;;;;;;;;53.75;40.50;29.40;86.60;;;;;;5056207;28;8765;-70
2022/01/12 09:20:23;;;;;;;;;48.50;38.75;29.40;88.30;;;;;;5055858;28;8792;-69
2022/01/12 09:22:50;;;;;;;;;44.75;39.00;29.40;84.60;;;;;;5056243;28;8785;-69
2022/01/12 09:25:17;;;;;;;;;51.25;41.75;29.50;83.90;;;;;;5056466;28;8741;-66
2022/01/12 09:27:44;;;;;;;;;50.25;41.00;29.50;84.10;;;;;;5055458;28;9397;-69
2022/01/12 09:30:14;;;;;;;;;50.75;39.50;29.40;85.10;;;;;;5059882;28;8789;-70
2022/01/12 09:32:41;;;;;;;;;47.50;39.75;29.40;86.60;;;;;;5059806;28;8816;-70
2022/01/12 09:35:08;;;;;;;;;51.50;41.50;29.30;87.40;;;;;;5058525;28;8778;-70
2022/01/12 09:37:35;;;;;;;;;49.00;39.67;29.30;86.80;;;;;;5059620;28;12187;-70
2022/01/12 09:40:02;;;;;;;;;51.00;40.50;29.30;86.90;;;;;;5059036;28;9541;-70
2022/01/12 09:42:29;;;;;;;;;51.00;41.50;29.20;87.50;;;;;;5059472;28;8750;-71
2022/01/12 09:44:56;;;;;;;;;52.75;40.75;29.10;87.20;;;;;;5060124;28;8752;-70
2022/01/12 09:47:23;;;;;;;;;51.50;40.50;29.10;86.80;;;;;;5058870;28;8738;-70
2022/01/12 09:49:49;;;;;;;;;49.50;41.75;29.10;86.70;;;;;;5059847;28;8789;-70
2022/01/12 09:52:16;;;;;;;;;53.25;42.75;29.10;86.80;;;;;;5059401;28;8710;-70
2022/01/12 09:54:43;;;;;;;;;50.75;41.25;29.00;87.20;;;;;;5059689;28;8888;-70
2022/01/12 09:57:10;;;;;;;;;49.75;41.00;29.00;86.90;;;;;;5059755;28;8770;-70
2022/01/12 09:59:39;;;;;;;;;53.50;43.00;29.10;87.20;;;;;;5059319;28;8801;-70
2022/01/12 10:02:15;;;;;;;;;49.75;41.00;29.10;87.90;;;;;;5058107;28;8804;-70
2022/01/12 10:04:42;;;;;;;;;51.75;42.50;29.10;88.30;;;;;;5058909;28;8790;-70
2022/01/12 10:07:10;;;;;;;;;50.50;43.00;29.00;88.20;;;;;;5060155;28;8754;-70
2022/01/12 10:09:44;;;;;;;;;58.00;44.50;29.10;88.20;;;;;;5057405;28;8754;-70
2022/01/12 10:12:19;;;;;;;;;52.00;41.25;29.10;88.50;;;;;;5059384;28;8766;-70
2022/01/12 10:14:46;;;;;;;;;51.50;40.50;29.20;87.90;;;;;;5059118;28;8790;-70
2022/01/12 10:17:14;;;;;;;;;51.00;42.75;29.30;87.80;;;;;;5059562;28;8777;-70
2022/01/12 10:19:40;;;;;;;;;61.50;45.00;29.30;87.80;;;;;;5040932;28;8782;-71
2022/01/12 10:22:11;;;;;;;;;54.25;44.50;29.30;88.70;;;;;;5059752;28;8797;-70
2022/01/12 10:24:39;;;;;;;;;53.75;42.50;29.20;88.90;;;;;;5057535;28;8773;-71
2022/01/12 10:27:18;;;;;;;;;54.75;43.75;29.20;88.30;;;;;;5058043;28;8781;-69
2022/01/12 10:29:45;;;;;;;;;52.00;42.50;29.20;89.20;;;;;;5058980;28;8758;-70
2022/01/12 10:32:16;;;;;;;;;55.25;44.25;29.10;89.00;;;;;;5059215;28;8812;-70
2022/01/12 10:34:44;;;;;;;;;56.50;44.75;29.00;89.40;;;;;;5058732;28;8826;-70
2022/01/12 10:37:15;;;;;;;;;56.50;45.50;29.00;90.10;;;;;;5059389;28;8796;-70
2022/01/12 10:39:43;;;;;;;;;55.25;44.75;28.80;90.50;;;;;;5057895;28;8797;-69
2022/01/12 10:42:12;;;;;;;;;51.25;42.50;28.70;91.00;;;;;;5058591;28;8796;-69
2022/01/12 10:44:40;;;;;;;;;56.75;43.50;28.50;91.20;;;;;;5058958;28;8932;-70
2022/01/12 10:47:20;;;;;;;;;57.25;46.00;28.40;91.10;;;;;;5074392;28;8916;-70
2022/01/12 10:49:56;;;;;;;;;60.50;45.75;28.30;91.30;;;;;;5058995;28;8884;-70
2022/01/12 10:52:27;;;;;;;;;55.50;45.25;28.20;91.30;;;;;;5058745;28;8726;-70
2022/01/12 10:54:56;;;;;;;;;56.50;46.00;28.20;91.70;;;;;;5059085;28;8717;-70
2022/01/12 10:57:31;;;;;;;;;56.75;45.25;28.20;92.00;;;;;;5058824;28;8715;-69
2022/01/12 11:00:18;;;;;;;;;57.25;45.75;28.10;92.40;;;;;;5057569;28;8857;-70
2022/01/12 11:02:49;;;;;;;;;58.25;46.00;28.00;92.10;;;;;;5058639;28;8741;-69
2022/01/12 11:05:16;;;;;;;;;59.00;47.75;27.90;92.20;;;;;;5057050;28;8872;-69
2022/01/12 11:07:43;;;;;;;;;58.75;44.75;27.90;92.70;;;;;;5058445;28;8742;-70
2022/01/12 11:10:10;;;;;;;;;53.50;45.50;27.80;94.00;;;;;;5058752;28;8746;-70
2022/01/12 11:12:38;;;;;;;;;57.75;45.50;27.80;94.00;;;;;;5057817;28;8756;-70
2022/01/12 11:15:09;;;;;;;;;47.50;35.75;27.70;93.30;;;;;;5057854;28;8738;-70
2022/01/12 11:17:38;;;;;;;;;57.75;44.25;27.70;93.10;;;;;;5056471;28;8729;-70
2022/01/12 11:20:14;;;;;;;;;57.50;45.25;27.80;92.50;;;;;;5057649;28;9479;-70
2022/01/12 11:22:44;;;;;;;;;57.25;45.50;27.70;93.50;;;;;;5057676;28;9497;-70
2022/01/12 11:25:25;;;;;;;;;51.50;43.00;27.50;93.90;;;;;;5058573;28;9397;-70
2022/01/12 11:28:11;;;;;;;;;59.25;46.25;27.50;93.80;;;;;;5058034;28;8765;-70
2022/01/12 11:30:41;;;;;;;;;66.00;52.00;27.50;94.40;;;;;;5057501;28;8741;-70
2022/01/12 11:33:09;;;;;;;;;60.00;47.40;27.50;93.80;;;;;;5056784;28;8757;-70
2022/01/12 11:35:41;;;;;;;;;64.00;50.60;27.60;92.50;;;;;;5056875;28;8738;-70
2022/01/12 11:38:08;;;;;;;;;60.80;48.60;27.60;92.50;;;;;;5057952;28;8798;-70
2022/01/12 11:40:44;;;;;;;;;68.80;50.20;27.60;92.90;;;;;;5056094;28;9465;-70
2022/01/12 11:43:25;;;;;;;;;61.75;49.75;27.60;94.90;;;;;;5058339;28;8750;-70
2022/01/12 11:46:15;;;;;;;;;60.00;48.00;27.50;95.10;;;;;;5057348;28;9804;-70
2022/01/12 11:48:45;;;;;;;;;59.80;47.80;27.40;94.80;;;;;;5057353;28;8756;-70
2022/01/12 11:51:13;;;;;;;;;65.40;50.60;27.20;95.30;;;;;;5056869;28;8758;-70
2022/01/12 11:53:54;;;;;;;;;69.75;54.00;27.10;95.30;;;;;;5039208;28;8838;-70
2022/01/12 11:56:25;;;;;;;;;63.75;50.00;27.00;95.90;;;;;;5056943;28;8867;-70
2022/01/12 11:58:57;;;;;;;;;65.75;49.75;27.00;95.20;;;;;;5055534;28;8766;-70
2022/01/12 12:01:25;;;;;;;;;62.00;49.80;26.90;94.40;;;;;;5057508;28;8714;-71
2022/01/12 12:04:00;;;;;;;;;63.40;47.40;27.00;94.20;;;;;;5056884;28;8738;-70
2022/01/12 12:06:27;;;;;;;;;68.00;52.00;27.10;95.20;;;;;;5057063;28;8734;-70
2022/01/12 12:09:05;;;;;;;;;65.00;53.20;27.00;95.20;;;;;;5072671;28;8772;-71
2022/01/12 12:11:33;;;;;;;;;68.20;53.20;27.00;95.10;;;;;;5056886;28;8785;-70
2022/01/12 12:14:04;;;;;;;;;68.25;52.50;27.00;95.50;;;;;;5056961;28;8761;-70
2022/01/12 12:16:32;;;;;;;;;69.40;53.00;27.00;95.70;;;;;;5055325;28;8774;-70
2022/01/12 12:18:58;;;;;;;;;66.00;51.40;26.90;95.60;;;;;;5057350;28;8789;-70
2022/01/12 12:21:25;;;;;;;;;58.20;48.40;26.90;95.80;;;;;;5038963;28;9489;-70
2022/01/12 12:23:52;;;;;;;;;64.20;52.40;27.00;95.90;;;;;;5055576;28;8772;-71
2022/01/12 12:26:19;;;;;;;;;67.20;51.00;26.90;97.50;;;;;;5056432;28;8851;-70
2022/01/12 12:28:54;;;;;;;;;67.80;52.60;26.70;95.90;;;;;;5055733;28;8757;-71
2022/01/12 12:31:22;;;;;;;;;67.00;52.60;26.80;95.80;;;;;;5055763;28;8762;-71
2022/01/12 12:34:02;;;;;;;;;70.20;53.80;26.80;96.00;;;;;;5056701;28;8778;-70
2022/01/12 12:36:29;;;;;;;;;66.00;51.20;26.80;96.50;;;;;;5056653;28;8843;-70
2022/01/12 12:39:09;;;;;;;;;72.00;55.00;26.70;97.10;;;;;;5056930;28;8902;-71
2022/01/12 12:41:37;;;;;;;;;72.20;54.60;26.70;98.00;;;;;;5056432;28;8812;-71
2022/01/12 12:44:05;;;;;;;;;69.40;55.00;26.60;96.50;;;;;;5047627;28;8772;-71
2022/01/12 12:46:32;;;;;;;;;70.00;55.60;26.70;97.20;;;;;;5055067;28;9527;-70
2022/01/12 12:48:58;;;;;;;;;71.20;56.40;26.60;97.50;;;;;;5057031;28;8792;-70
2022/01/12 12:51:25;;;;;;;;;70.80;54.40;26.60;97.10;;;;;;5056377;28;8831;-70
2022/01/12 12:53:56;;;;;;;;;71.20;58.20;26.60;97.40;;;;;;5054929;28;8758;-70
2022/01/12 12:56:27;;;;;;;;;71.40;57.40;26.70;98.00;;;;;;5038803;28;10161;-70
2022/01/12 12:58:55;;;;;;;;;74.00;55.60;26.70;98.00;;;;;;5056256;28;8773;-71
2022/01/12 13:01:24;;;;;;;;;72.20;54.00;26.50;98.20;;;;;;5039109;28;8772;-70
2022/01/12 13:03:54;;;;;;;;;74.60;56.20;26.50;98.10;;;;;;5059764;28;8774;-70
2022/01/12 13:06:29;;;;;;;;;67.40;54.60;26.60;98.00;;;;;;5062497;28;8752;-70
2022/01/12 13:09:03;;;;;;;;;70.00;53.80;26.60;98.30;;;;;;5062724;28;8819;-70
2022/01/12 13:11:30;;;;;;;;;73.20;57.60;26.50;98.50;;;;;;5061474;28;8754;-70
2022/01/12 13:13:58;;;;;;;;;77.20;62.20;26.40;98.40;;;;;;5078373;28;8757;-70
2022/01/12 13:16:27;;;;;;;;;69.60;55.00;26.40;98.30;;;;;;5062762;28;8780;-69
2022/01/12 13:19:05;;;;;;;;;74.60;63.20;26.40;98.50;;;;;;5063204;28;8833;-70
2022/01/12 13:21:34;;;;;;;;;76.00;61.20;26.40;98.40;;;;;;5062974;28;8762;-70
2022/01/12 13:24:00;;;;;;;;;79.40;66.60;26.40;98.20;;;;;;5078153;28;8765;-70
2022/01/12 13:26:32;;;;;;;;;77.40;61.80;26.40;99.80;;;;;;5061377;28;8774;-70
2022/01/12 13:29:02;;;;;;;;;78.40;68.80;26.20;99.90;;;;;;5062787;28;8761;-70
2022/01/12 13:31:29;;;;;;;;;81.20;70.40;26.10;99.90;;;;;;5061320;28;9552;-70
2022/01/12 13:33:58;;;;;;;;;80.00;66.80;26.20;99.80;;;;;;5061581;28;8836;-71
2022/01/12 13:36:27;;;;;;;;;83.60;71.60;26.20;99.50;;;;;;5077713;28;8753;-70
2022/01/12 13:38:58;;;;;;;;;82.60;72.40;26.10;99.90;;;;;;5063035;28;8805;-71
2022/01/12 13:41:30;;;;;;;;;76.80;67.00;26.10;99.80;;;;;;5062790;28;8754;-70
2022/01/12 13:44:06;;;;;;;;;83.00;71.40;26.20;99.80;;;;;;5077783;28;8734;-70
2022/01/12 13:46:44;;;;;;;;;82.80;71.20;26.20;99.90;;;;;;5077721;28;8750;-70
2022/01/12 13:51:42;;;;;;;;;77.00;63.00;26.20;99.90;;;;;;5062582;28;8840;-70
2022/01/12 13:54:13;;;;;;;;;78.40;68.60;26.10;99.90;;;;;;5062312;28;8777;-70
2022/01/12 13:56:44;;;;;;;;;80.20;68.40;26.00;99.90;;;;;;5062504;28;8796;-70
2022/01/12 13:59:11;;;;;;;;;80.40;69.80;25.90;99.90;;;;;;5062451;28;8809;-71
2022/01/12 14:01:39;;;;;;;;;76.00;63.00;25.90;99.90;;;;;;5062564;28;8754;-70
2022/01/12 14:04:12;;;;;;;;;81.40;73.00;25.80;99.90;;;;;;5062720;28;8884;-70
2022/01/12 14:06:41;;;;;;;;;91.40;78.60;25.70;99.90;;;;;;5062248;28;8777;-70
2022/01/12 14:09:36;;;;;;;;;88.20;77.40;25.60;99.90;;;;;;5062086;28;8758;-70